Terminal Aerodrome Forecast
Issued by NWS Cleveland, OH

Home | Current Version | Previous Version | Graphics & Text | Print | Product List | Glossary On
Versions: 1 2 3 4 5 6 7 8 9 10 11 12 13 14 15 16
477
FTUS41 KCLE 221419 AAA
TAFYNG
TAF AMD
KYNG 221419Z 2214/2312 20006KT P6SM VCSH BKN030 OVC035
      TEMPO 2214/2216 3SM -SHRA BR BKN009 OVC015
     FM221600 20008KT P6SM OVC025
     FM230300 18006KT 5SM BR OVC015
     FM230700 20010KT 4SM BR OVC009=

USA.gov is the U.S. government's official web portal to all federal, state and local government web resources and services.